Time;durP1;ratioP1;P1;durP2;ratioP2;P2;SDS_P1;SDS_P2;PMS_P1;PMS_P2;Temp;Humidity;BMP_temperature;BMP_pressure;BME280_temperature;BME280_humidity;BME280_pressure;Samples;Min_cycle;Max_cycle;Signal;HPM_P1;HPM_P2
2021/11/21 00:00:24;;;;;;;41.40;17.00;;;5.30;99.90;;;;;;4992656;28;20439;-68
2021/11/21 00:02:50;;;;;;;50.20;18.33;;;5.30;99.90;;;;;;5035887;28;20057;-69
2021/11/21 00:05:16;;;;;;;44.85;17.80;;;5.30;99.90;;;;;;4987536;28;20490;-69
2021/11/21 00:07:43;;;;;;;44.13;17.63;;;5.30;99.90;;;;;;5007979;28;20020;-68
2021/11/21 00:10:09;;;;;;;43.15;17.67;;;5.30;99.90;;;;;;4988308;28;20511;-69
2021/11/21 00:12:35;;;;;;;45.28;16.65;;;5.30;99.90;;;;;;4995302;28;20087;-68
2021/11/21 00:15:03;;;;;;;43.42;17.38;;;5.30;99.90;;;;;;4991378;28;20022;-68
2021/11/21 00:17:28;;;;;;;51.40;18.65;;;5.30;99.90;;;;;;5002961;28;20055;-69
2021/11/21 00:19:54;;;;;;;47.63;17.08;;;5.30;99.90;;;;;;4989403;28;20068;-68
2021/11/21 00:22:20;;;;;;;50.38;18.45;;;5.30;99.90;;;;;;4984728;28;20022;-68
2021/11/21 00:24:46;;;;;;;49.00;17.13;;;5.30;99.90;;;;;;5017311;28;20042;-68
2021/11/21 00:27:12;;;;;;;44.90;16.65;;;5.30;99.90;;;;;;4990792;28;20054;-68
2021/11/21 00:29:37;;;;;;;50.38;17.70;;;5.30;99.90;;;;;;5076922;28;20031;-68
2021/11/21 00:32:04;;;;;;;47.83;17.95;;;5.30;99.90;;;;;;4978673;28;20030;-68
2021/11/21 00:34:30;;;;;;;50.40;17.55;;;5.40;99.90;;;;;;4989133;28;20066;-69
2021/11/21 00:36:56;;;;;;;48.97;18.38;;;5.40;99.90;;;;;;5001402;28;20427;-68
2021/11/21 00:39:22;;;;;;;40.92;17.48;;;5.40;99.90;;;;;;5007664;28;20042;-68
2021/11/21 00:41:48;;;;;;;50.78;18.38;;;5.40;99.90;;;;;;4989907;28;20057;-68
2021/11/21 00:44:13;;;;;;;46.25;18.13;;;5.40;99.90;;;;;;4994500;28;20075;-68
2021/11/21 00:46:39;;;;;;;47.10;18.05;;;5.40;99.90;;;;;;4989127;28;20394;-68
2021/11/21 00:49:11;;;;;;;51.53;18.17;;;5.40;99.90;;;;;;4987573;28;20023;-70
2021/11/21 00:51:37;;;;;;;56.60;17.65;;;5.40;99.90;;;;;;4992396;28;20034;-69
2021/11/21 00:54:20;;;;;;;49.92;18.88;;;5.40;99.90;;;;;;4991373;28;20449;-68
2021/11/21 00:56:46;;;;;;;47.83;17.60;;;5.40;99.90;;;;;;4992364;28;20436;-68
2021/11/21 00:59:11;;;;;;;48.88;16.85;;;5.40;99.90;;;;;;4980625;28;20084;-68
2021/11/21 01:01:38;;;;;;;57.45;18.05;;;5.40;99.90;;;;;;5027331;28;20035;-68
2021/11/21 01:04:04;;;;;;;54.10;16.90;;;5.40;99.90;;;;;;5055756;28;20038;-68
2021/11/21 01:06:30;;;;;;;53.97;18.67;;;5.30;99.90;;;;;;5000812;28;20669;-68
2021/11/21 01:08:55;;;;;;;54.15;18.30;;;5.40;99.90;;;;;;4988056;28;20043;-68
2021/11/21 01:11:21;;;;;;;55.83;18.98;;;5.40;99.90;;;;;;4995518;28;20399;-68
2021/11/21 01:13:47;;;;;;;57.38;19.02;;;5.30;99.90;;;;;;4987756;28;20035;-69
2021/11/21 01:16:14;;;;;;;51.80;17.13;;;5.30;99.90;;;;;;5004178;28;20038;-68
2021/11/21 01:18:39;;;;;;;55.30;18.63;;;5.30;99.90;;;;;;4997719;28;20038;-68
2021/11/21 01:21:05;;;;;;;49.38;18.13;;;5.30;99.90;;;;;;4988695;28;20504;-69
2021/11/21 01:23:31;;;;;;;52.67;18.05;;;5.30;99.90;;;;;;4987761;28;20110;-69
2021/11/21 01:25:57;;;;;;;56.95;18.55;;;5.30;99.90;;;;;;5000132;28;20122;-68
2021/11/21 01:28:22;;;;;;;53.63;17.38;;;5.30;99.90;;;;;;5004239;28;20101;-68
2021/11/21 01:30:48;;;;;;;54.08;18.63;;;5.30;99.90;;;;;;4990511;28;20030;-68
2021/11/21 01:33:14;;;;;;;48.65;17.42;;;5.30;99.90;;;;;;4987806;28;20511;-68
2021/11/21 01:35:40;;;;;;;56.10;17.80;;;5.30;99.90;;;;;;4988667;28;20402;-69
2021/11/21 01:38:06;;;;;;;53.58;18.10;;;5.30;99.90;;;;;;4984144;28;20033;-69
2021/11/21 01:40:32;;;;;;;90.82;19.42;;;5.30;99.90;;;;;;4989080;28;20033;-69
2021/11/21 01:42:58;;;;;;;53.30;18.17;;;5.30;99.90;;;;;;5020890;28;20030;-69
2021/11/21 01:45:24;;;;;;;53.22;18.35;;;5.20;99.90;;;;;;4994866;28;20032;-69
2021/11/21 01:47:50;;;;;;;49.25;18.42;;;5.20;99.90;;;;;;5008874;28;20113;-69
2021/11/21 01:50:22;;;;;;;53.10;18.30;;;5.20;99.90;;;;;;4987986;28;20028;-68
2021/11/21 01:52:47;;;;;;;59.42;17.98;;;5.20;99.90;;;;;;4994001;28;20038;-68
2021/11/21 01:55:13;;;;;;;49.55;16.58;;;5.10;99.90;;;;;;4988202;28;20046;-68
2021/11/21 01:57:39;;;;;;;51.05;18.02;;;5.10;99.90;;;;;;5031756;28;20147;-69
2021/11/21 02:00:07;;;;;;;54.80;18.75;;;5.10;99.90;;;;;;4988370;28;20507;-69
2021/11/21 02:02:33;;;;;;;49.17;17.88;;;5.10;99.90;;;;;;5003515;28;20342;-68
2021/11/21 02:04:58;;;;;;;49.13;17.38;;;5.10;99.90;;;;;;4976038;28;20026;-69
2021/11/21 02:07:26;;;;;;;52.08;18.40;;;5.10;99.90;;;;;;4988937;28;20030;-70
2021/11/21 02:10:03;;;;;;;48.75;17.08;;;5.10;99.90;;;;;;4985709;28;20083;-69
2021/11/21 02:12:29;;;;;;;49.38;17.40;;;5.10;99.90;;;;;;4988617;28;20419;-69
2021/11/21 02:14:54;;;;;;;51.22;17.67;;;5.10;99.90;;;;;;4986049;28;20053;-69
2021/11/21 02:17:25;;;;;;;52.60;17.95;;;5.00;99.90;;;;;;4992952;28;20030;-69
2021/11/21 02:19:50;;;;;;;52.42;17.52;;;5.10;99.90;;;;;;4986467;28;20077;-69
2021/11/21 02:22:16;;;;;;;52.13;17.38;;;5.10;99.90;;;;;;4995413;28;20482;-69
2021/11/21 02:24:42;;;;;;;52.03;16.95;;;5.00;99.90;;;;;;4989869;28;20386;-70
2021/11/21 02:27:07;;;;;;;49.63;17.33;;;5.00;99.90;;;;;;4995007;28;20022;-69
2021/11/21 02:29:33;;;;;;;53.13;18.92;;;5.00;99.90;;;;;;4988504;28;20053;-69
2021/11/21 02:31:58;;;;;;;46.40;17.17;;;5.00;99.90;;;;;;5020666;28;20023;-69
2021/11/21 02:34:24;;;;;;;48.20;17.38;;;5.00;99.90;;;;;;4991080;28;20057;-70
2021/11/21 02:36:51;;;;;;;40.85;15.70;;;5.00;99.90;;;;;;5028458;28;20018;-69
2021/11/21 02:39:16;;;;;;;46.90;16.13;;;5.00;99.90;;;;;;4987066;28;20427;-70
2021/11/21 02:41:42;;;;;;;38.53;15.43;;;5.00;99.90;;;;;;5015716;28;20144;-69
2021/11/21 02:44:08;;;;;;;43.22;16.23;;;5.00;99.90;;;;;;4986206;28;20031;-71
2021/11/21 02:46:36;;;;;;;39.10;16.35;;;5.00;99.90;;;;;;4989028;28;20033;-69
2021/11/21 02:49:02;;;;;;;40.10;16.35;;;4.90;99.90;;;;;;4980632;28;20035;-69
2021/11/21 02:51:28;;;;;;;54.28;18.63;;;4.90;99.90;;;;;;4993219;28;20386;-69
2021/11/21 02:53:54;;;;;;;41.80;17.58;;;4.90;99.90;;;;;;4982810;28;20034;-69
2021/11/21 02:56:20;;;;;;;41.55;17.70;;;4.90;99.90;;;;;;5013927;28;20088;-69
2021/11/21 02:58:47;;;;;;;45.42;17.65;;;4.90;99.90;;;;;;4986985;28;20104;-69
2021/11/21 03:01:20;;;;;;;40.03;16.67;;;4.90;99.90;;;;;;5005542;28;20758;-70
2021/11/21 03:03:46;;;;;;;36.58;15.70;;;4.80;99.90;;;;;;4975641;28;20514;-70
2021/11/21 03:06:12;;;;;;;36.20;15.20;;;4.80;99.90;;;;;;5007239;28;20824;-69
2021/11/21 03:08:39;;;;;;;37.58;14.95;;;4.70;99.90;;;;;;4987104;28;20101;-69
2021/11/21 03:11:16;;;;;;;36.05;15.43;;;4.70;99.90;;;;;;4993578;28;20018;-69
2021/11/21 03:13:41;;;;;;;32.08;14.07;;;4.70;99.90;;;;;;4992274;28;20023;-69
2021/11/21 03:16:07;;;;;;;31.75;14.88;;;4.80;99.90;;;;;;4992488;28;20030;-69
2021/11/21 03:18:33;;;;;;;34.42;14.82;;;4.70;99.90;;;;;;4987526;28;20030;-69
2021/11/21 03:20:58;;;;;;;35.55;14.98;;;4.80;99.90;;;;;;5006123;28;20024;-69
2021/11/21 03:23:24;;;;;;;35.38;15.30;;;4.80;99.90;;;;;;4994456;28;20384;-69
2021/11/21 03:25:49;;;;;;;27.63;13.95;;;4.80;99.90;;;;;;4994555;28;20105;-69
2021/11/21 03:28:16;;;;;;;29.23;14.15;;;4.80;99.90;;;;;;5091631;28;20478;-68
2021/11/21 03:30:42;;;;;;;34.53;16.38;;;4.80;99.90;;;;;;5012192;28;20032;-69
2021/11/21 03:33:08;;;;;;;37.13;17.20;;;4.80;99.90;;;;;;5028771;28;20051;-68
2021/11/21 03:35:34;;;;;;;41.42;15.80;;;4.80;99.90;;;;;;4996358;28;20028;-69
2021/11/21 03:38:01;;;;;;;35.42;15.80;;;4.70;99.90;;;;;;4992560;28;20434;-68
2021/11/21 03:40:26;;;;;;;36.95;15.57;;;4.70;99.90;;;;;;5002115;28;20107;-68
2021/11/21 03:42:52;;;;;;;34.97;16.08;;;4.70;99.90;;;;;;4988197;28;20840;-69
2021/11/21 03:45:18;;;;;;;34.47;14.30;;;4.70;99.90;;;;;;4990122;28;20110;-68
2021/11/21 03:47:46;;;;;;;30.98;13.73;;;4.70;99.90;;;;;;5091068;28;20028;-68
2021/11/21 03:50:13;;;;;;;32.70;13.60;;;4.70;99.90;;;;;;4989435;28;20079;-68
2021/11/21 03:52:40;;;;;;;32.65;14.30;;;4.60;99.90;;;;;;4989018;28;20056;-68
2021/11/21 03:55:07;;;;;;;34.03;16.15;;;4.70;99.90;;;;;;4989813;28;20031;-68
2021/11/21 03:57:33;;;;;;;32.25;14.82;;;4.60;99.90;;;;;;4990252;28;20091;-68
2021/11/21 03:59:58;;;;;;;30.60;15.15;;;4.60;99.90;;;;;;4988723;28;20026;-68
2021/11/21 04:02:24;;;;;;;35.97;15.77;;;4.60;99.90;;;;;;4998401;28;20135;-69
2021/11/21 04:04:50;;;;;;;34.42;14.98;;;4.50;99.90;;;;;;4986465;28;20062;-68
2021/11/21 04:07:15;;;;;;;36.53;15.35;;;4.50;99.90;;;;;;4996339;28;20458;-68
2021/11/21 04:09:41;;;;;;;33.00;14.63;;;4.40;99.90;;;;;;4994561;28;20643;-68
2021/11/21 04:12:07;;;;;;;32.50;14.95;;;4.40;99.90;;;;;;5026228;23;20130;-93
2021/11/21 04:14:33;;;;;;;32.28;13.82;;;4.40;99.90;;;;;;5011721;28;20383;-93
2021/11/21 04:16:58;;;;;;;25.13;11.90;;;4.40;99.90;;;;;;5002453;28;20033;-91
2021/11/21 04:19:24;;;;;;;23.30;11.07;;;4.40;99.90;;;;;;4998741;28;20046;-92
2021/11/21 04:21:50;;;;;;;22.33;10.07;;;4.40;99.90;;;;;;5037770;28;20045;-92
2021/11/21 04:24:15;;;;;;;18.27;9.95;;;4.40;99.90;;;;;;5002753;28;20030;-92
2021/11/21 04:26:43;;;;;;;18.52;9.18;;;4.40;99.90;;;;;;4988921;28;20030;-91
2021/11/21 04:29:10;;;;;;;20.42;8.50;;;4.40;99.90;;;;;;4992178;28;20134;-92
2021/11/21 04:31:35;;;;;;;17.33;8.55;;;4.40;99.90;;;;;;4990894;28;20137;-92
2021/11/21 04:34:01;;;;;;;15.85;8.15;;;4.40;99.90;;;;;;4991558;28;20050;-92
2021/11/21 04:36:27;;;;;;;17.80;8.85;;;4.40;99.90;;;;;;4988004;28;20030;-91
2021/11/21 04:38:52;;;;;;;16.27;8.43;;;4.40;99.90;;;;;;4993476;28;20061;-91
2021/11/21 04:41:18;;;;;;;19.60;9.63;;;4.40;99.90;;;;;;4991609;28;20056;-92
2021/11/21 04:43:44;;;;;;;19.25;9.55;;;4.40;99.90;;;;;;5081671;28;20026;-91
2021/11/21 04:46:10;;;;;;;19.48;9.80;;;4.50;99.90;;;;;;4992280;28;20082;-92
2021/11/21 04:48:35;;;;;;;16.48;8.45;;;4.40;99.90;;;;;;4992522;28;20065;-91
2021/11/21 04:51:01;;;;;;;17.52;9.18;;;4.40;99.90;;;;;;4991739;28;20029;-92
2021/11/21 04:53:27;;;;;;;18.02;8.70;;;4.50;99.90;;;;;;4994611;28;20117;-92
2021/11/21 04:55:52;;;;;;;18.77;9.10;;;4.50;99.90;;;;;;5002760;28;20038;-92
2021/11/21 04:58:18;;;;;;;21.90;10.38;;;4.50;99.90;;;;;;4991611;28;20395;-92
2021/11/21 05:00:44;;;;;;;26.65;11.95;;;4.40;99.90;;;;;;4990957;28;20041;-91
2021/11/21 05:03:10;;;;;;;24.60;12.35;;;4.40;99.90;;;;;;4990873;28;20480;-91
2021/11/21 05:05:36;;;;;;;25.95;11.70;;;4.40;99.90;;;;;;4996460;28;20034;-92
2021/11/21 05:08:04;;;;;;;25.30;13.20;;;4.40;99.90;;;;;;4986467;28;20026;-91
2021/11/21 05:10:29;;;;;;;27.92;12.48;;;4.30;99.90;;;;;;4996232;28;20030;-91
2021/11/21 05:12:55;;;;;;;27.70;12.27;;;4.30;99.90;;;;;;5000577;28;20035;-92
2021/11/21 05:15:23;;;;;;;26.00;11.70;;;4.30;99.90;;;;;;5005841;28;20059;-92
2021/11/21 05:17:49;;;;;;;25.98;11.95;;;4.30;99.90;;;;;;4997985;28;20058;-92
2021/11/21 05:20:17;;;;;;;27.50;11.80;;;4.30;99.90;;;;;;4992211;28;20033;-91
2021/11/21 05:22:44;;;;;;;24.38;12.05;;;4.30;99.90;;;;;;4990536;28;20454;-92
2021/11/21 05:25:11;;;;;;;24.52;11.50;;;4.30;99.90;;;;;;5008390;28;20026;-92
2021/11/21 05:27:36;;;;;;;25.90;12.02;;;4.30;99.90;;;;;;4997838;28;20060;-92
2021/11/21 05:30:04;;;;;;;24.67;12.48;;;4.30;99.90;;;;;;5000927;28;20023;-90
2021/11/21 05:32:30;;;;;;;24.52;11.98;;;4.30;99.90;;;;;;4991421;28;20412;-92
2021/11/21 05:34:56;;;;;;;27.73;12.23;;;4.30;99.90;;;;;;4996750;28;20030;-91
2021/11/21 05:37:21;;;;;;;25.48;12.32;;;4.30;99.90;;;;;;4990940;28;20031;-92
2021/11/21 05:39:47;;;;;;;24.05;12.20;;;4.30;99.90;;;;;;4984382;28;20030;-92
2021/11/21 05:42:13;;;;;;;24.33;11.75;;;4.20;99.90;;;;;;4990823;28;20109;-91
2021/11/21 05:44:38;;;;;;;25.50;12.10;;;4.30;99.90;;;;;;4994050;28;20030;-92
2021/11/21 05:47:04;;;;;;;25.67;12.23;;;4.20;99.90;;;;;;4990795;28;20095;-92
2021/11/21 05:49:30;;;;;;;23.13;11.45;;;4.30;99.90;;;;;;5003774;28;20050;-91
2021/11/21 05:51:56;;;;;;;24.67;12.32;;;4.20;99.90;;;;;;4990427;28;20018;-91
2021/11/21 05:54:22;;;;;;;25.42;12.13;;;4.30;99.90;;;;;;4993119;28;20034;-92
2021/11/21 05:56:47;;;;;;;24.30;11.32;;;4.30;99.90;;;;;;5008149;28;20088;-91
2021/11/21 05:59:13;;;;;;;22.55;11.30;;;4.30;99.90;;;;;;4993091;28;20031;-92
2021/11/21 06:01:39;;;;;;;25.98;11.85;;;4.30;99.90;;;;;;5003312;28;20612;-92
2021/11/21 06:04:06;;;;;;;27.65;11.63;;;4.30;99.90;;;;;;4995962;28;20617;-92
2021/11/21 06:06:31;;;;;;;26.48;12.45;;;4.30;99.90;;;;;;4991328;28;20340;-92
2021/11/21 06:08:57;;;;;;;24.15;11.55;;;4.30;99.90;;;;;;4999288;28;20026;-92
2021/11/21 06:11:22;;;;;;;23.80;11.43;;;4.30;99.90;;;;;;4990748;28;20087;-93
2021/11/21 06:13:48;;;;;;;22.92;10.70;;;4.30;99.90;;;;;;4993057;28;20034;-92
2021/11/21 06:16:14;;;;;;;22.40;10.70;;;4.20;99.90;;;;;;4989985;28;20030;-91
2021/11/21 06:18:39;;;;;;;21.13;10.60;;;4.20;99.90;;;;;;4998752;28;20491;-91
2021/11/21 06:21:05;;;;;;;21.65;10.55;;;4.20;99.90;;;;;;4999145;28;20026;-91
2021/11/21 06:23:35;;;;;;;21.98;10.98;;;4.20;99.90;;;;;;5007304;28;20042;-91
2021/11/21 06:26:05;;;;;;;24.52;11.50;;;4.20;99.90;;;;;;4996655;28;20086;-92
2021/11/21 06:28:32;;;;;;;21.60;10.52;;;4.30;99.90;;;;;;4992324;28;20031;-92
2021/11/21 06:30:58;;;;;;;21.52;10.48;;;4.20;99.90;;;;;;4990791;28;20034;-90
2021/11/21 06:33:24;;;;;;;22.88;10.05;;;4.20;99.90;;;;;;5002834;28;20029;-92
2021/11/21 06:35:50;;;;;;;22.52;11.40;;;4.20;99.90;;;;;;4991421;28;20026;-91
2021/11/21 06:38:17;;;;;;;27.88;11.35;;;4.30;99.90;;;;;;4990801;28;20057;-91
2021/11/21 06:40:44;;;;;;;23.38;10.50;;;4.20;99.90;;;;;;4985880;28;20043;-92
2021/11/21 06:43:10;;;;;;;28.60;11.98;;;4.20;99.90;;;;;;4989418;28;20034;-91
2021/11/21 06:45:36;;;;;;;25.83;11.00;;;4.20;99.90;;;;;;5002580;28;20074;-91
2021/11/21 06:48:01;;;;;;;31.25;12.07;;;4.20;99.90;;;;;;4996893;28;20058;-91
2021/11/21 06:50:27;;;;;;;26.33;11.85;;;4.20;99.90;;;;;;4992956;28;20026;-92
2021/11/21 06:52:53;;;;;;;27.55;11.77;;;4.20;99.90;;;;;;4993576;28;20453;-91
2021/11/21 06:55:19;;;;;;;28.02;11.93;;;4.10;99.90;;;;;;4992897;28;20027;-92
2021/11/21 06:57:45;;;;;;;28.17;11.75;;;4.10;99.90;;;;;;4993894;28;20162;-92
2021/11/21 07:00:16;;;;;;;28.42;12.65;;;4.10;99.90;;;;;;4993369;28;20090;-91
2021/11/21 07:02:42;;;;;;;30.33;12.68;;;4.10;99.90;;;;;;4993298;28;20128;-92
2021/11/21 07:05:07;;;;;;;32.33;11.95;;;4.20;99.90;;;;;;4994305;28;20057;-91
2021/11/21 07:07:35;;;;;;;27.90;10.73;;;4.20;99.90;;;;;;4994800;28;20022;-92
2021/11/21 07:10:00;;;;;;;31.40;12.48;;;4.20;99.90;;;;;;4993233;28;20030;-91
2021/11/21 07:12:26;;;;;;;29.75;12.40;;;4.20;99.90;;;;;;4998954;28;20030;-92
2021/11/21 07:14:52;;;;;;;31.52;12.70;;;4.30;99.90;;;;;;4996235;28;20109;-91
2021/11/21 07:17:17;;;;;;;34.65;12.30;;;4.30;99.90;;;;;;5010602;28;20027;-92
2021/11/21 07:19:43;;;;;;;30.83;12.32;;;4.30;99.90;;;;;;4995736;28;20037;-91
2021/11/21 07:22:09;;;;;;;29.90;12.10;;;4.30;99.90;;;;;;4993452;28;20031;-91
2021/11/21 07:24:34;;;;;;;27.33;11.75;;;4.30;99.90;;;;;;4994337;28;20129;-93
2021/11/21 07:27:00;;;;;;;32.30;12.70;;;4.30;99.90;;;;;;5002635;28;20071;-90
2021/11/21 07:29:29;;;;;;;37.70;15.23;;;4.40;99.90;;;;;;5028370;28;20125;-91
2021/11/21 07:32:00;;;;;;;41.75;15.80;;;4.40;99.90;;;;;;4994631;28;20026;-91
2021/11/21 07:34:27;;;;;;;39.25;16.13;;;4.40;99.90;;;;;;4997417;28;20030;-91
2021/11/21 07:36:53;;;;;;;43.92;16.77;;;4.40;99.90;;;;;;4998927;28;20034;-92
2021/11/21 07:39:19;;;;;;;44.13;17.08;;;4.40;99.90;;;;;;4994245;28;20034;-92
2021/11/21 07:41:45;;;;;;;37.83;15.30;;;4.40;99.90;;;;;;4994289;28;20428;-92
2021/11/21 07:44:33;;;;;;;42.78;15.43;;;4.40;99.90;;;;;;4994043;28;20064;-91
2021/11/21 07:46:59;;;;;;;43.78;16.92;;;4.30;99.90;;;;;;4977304;28;20423;-90
2021/11/21 07:49:24;;;;;;;41.35;16.33;;;4.30;99.90;;;;;;4989239;28;20030;-92
2021/11/21 07:51:50;;;;;;;40.28;16.77;;;4.30;99.90;;;;;;4986437;28;20022;-92
2021/11/21 07:54:15;;;;;;;39.15;16.70;;;4.20;99.90;;;;;;4993658;28;20058;-92
2021/11/21 07:56:41;;;;;;;40.72;17.33;;;4.20;99.90;;;;;;4993875;28;20437;-93
2021/11/21 07:59:09;;;;;;;44.38;16.73;;;4.20;99.90;;;;;;4982686;28;20023;-93
2021/11/21 08:01:34;;;;;;;38.38;16.15;;;4.20;99.90;;;;;;4998028;28;20488;-93
2021/11/21 08:04:00;;;;;;;41.40;17.73;;;4.20;99.90;;;;;;4997388;28;20038;-93
2021/11/21 08:06:26;;;;;;;40.72;17.52;;;4.20;99.90;;;;;;4996796;28;20030;-92
2021/11/21 08:08:51;;;;;;;49.05;19.90;;;4.20;99.90;;;;;;4994051;28;20030;-92
2021/11/21 08:11:17;;;;;;;47.75;19.27;;;4.20;99.90;;;;;;4993621;28;20027;-93
2021/11/21 08:13:43;;;;;;;48.33;19.60;;;4.20;99.90;;;;;;4993284;28;20396;-93
2021/11/21 08:16:08;;;;;;;45.92;20.30;;;4.20;99.90;;;;;;4993778;28;20125;-93
2021/11/21 08:18:37;;;;;;;47.75;19.45;;;4.20;99.90;;;;;;4993492;28;20027;-93
2021/11/21 08:21:03;;;;;;;64.10;19.25;;;4.20;99.90;;;;;;4996500;28;20031;-92
2021/11/21 08:23:29;;;;;;;51.38;20.73;;;4.20;99.90;;;;;;4991027;28;20119;-92
2021/11/21 08:25:55;;;;;;;61.65;20.75;;;4.20;99.90;;;;;;4990643;28;20061;-93
2021/11/21 08:28:21;;;;;;;54.85;20.48;;;4.20;99.90;;;;;;4995563;28;20505;-93
2021/11/21 08:30:47;;;;;;;50.35;19.30;;;4.20;99.90;;;;;;4994422;28;20050;-93
2021/11/21 08:33:13;;;;;;;49.50;19.75;;;4.20;99.90;;;;;;4996768;28;20491;-92
2021/11/21 08:35:39;;;;;;;45.60;18.30;;;4.20;99.90;;;;;;4996502;28;20061;-92
2021/11/21 08:38:05;;;;;;;48.45;18.50;;;4.20;99.90;;;;;;4996506;28;20042;-91
2021/11/21 08:40:31;;;;;;;48.40;18.30;;;4.20;99.90;;;;;;5003684;28;20183;-92
2021/11/21 08:42:58;;;;;;;42.15;17.38;;;4.20;99.90;;;;;;4992969;28;20039;-92
2021/11/21 08:45:24;;;;;;;47.50;17.58;;;4.10;99.90;;;;;;4977390;28;20026;-91
2021/11/21 08:47:52;;;;;;;50.38;18.98;;;4.10;99.90;;;;;;4992906;28;20056;-92
2021/11/21 08:50:18;;;;;;;45.33;17.17;;;4.10;99.90;;;;;;4992627;28;20018;-91
2021/11/21 08:52:46;;;;;;;40.55;15.73;;;4.10;99.90;;;;;;4993558;28;20531;-92
2021/11/21 08:55:12;;;;;;;39.42;16.10;;;4.10;99.90;;;;;;4993579;28;20038;-92
2021/11/21 08:57:38;;;;;;;42.10;17.05;;;4.10;99.90;;;;;;5007956;28;20022;-91
2021/11/21 09:00:09;;;;;;;43.70;16.27;;;4.10;99.90;;;;;;5009544;28;20075;-88
2021/11/21 09:02:38;;;;;;;41.15;16.17;;;4.10;99.90;;;;;;4989324;28;20030;-89
2021/11/21 09:05:07;;;;;;;41.72;16.50;;;4.10;99.90;;;;;;4990938;28;20452;-88
2021/11/21 09:07:34;;;;;;;53.05;19.90;;;4.10;99.90;;;;;;4995907;28;20031;-91
2021/11/21 09:09:59;;;;;;;55.95;23.63;;;4.10;99.90;;;;;;5009733;28;20485;-90
2021/11/21 09:12:31;;;;;;;51.95;20.13;;;4.00;99.90;;;;;;4993794;28;20037;-94
2021/11/21 09:14:56;;;;;;;44.97;19.20;;;4.00;99.90;;;;;;4994363;28;20049;-92
2021/11/21 09:17:22;;;;;;;43.35;18.35;;;4.00;99.90;;;;;;5000869;28;20030;-92
2021/11/21 09:19:48;;;;;;;45.17;18.55;;;3.90;99.90;;;;;;4995773;28;20054;-92
2021/11/21 09:22:14;;;;;;;42.08;19.80;;;3.90;99.90;;;;;;4999267;28;20376;-93
2021/11/21 09:24:39;;;;;;;35.47;15.70;;;3.90;99.90;;;;;;4999217;28;20046;-94
2021/11/21 09:27:07;;;;;;;38.15;18.13;;;3.90;99.90;;;;;;5001172;28;20551;-94
2021/11/21 09:29:33;;;;;;;38.80;17.67;;;3.90;99.90;;;;;;4999946;28;20117;-92
2021/11/21 09:31:58;;;;;;;34.70;16.85;;;3.90;99.90;;;;;;4996596;28;20046;-94
2021/11/21 09:34:27;;;;;;;37.80;18.73;;;4.00;99.90;;;;;;5009201;28;20064;-94
2021/11/21 09:36:55;;;;;;;35.45;16.67;;;4.00;99.90;;;;;;4997866;28;20090;-93
2021/11/21 09:39:21;;;;;;;37.20;14.32;;;3.90;99.90;;;;;;5008181;28;20046;-93
2021/11/21 09:41:47;;;;;;;58.47;34.03;;;3.90;99.90;;;;;;5001929;28;20037;-95
2021/11/21 09:44:19;;;;;;;111.05;80.90;;;3.90;99.90;;;;;;5006259;28;20035;-94
2021/11/21 09:46:44;;;;;;;55.50;36.97;;;3.90;99.90;;;;;;5004428;28;20026;-91
2021/11/21 09:49:12;;;;;;;25.27;13.20;;;3.90;99.90;;;;;;5009782;28;20034;-93
2021/11/21 09:51:38;;;;;;;20.40;10.68;;;3.90;99.90;;;;;;4995000;28;20038;-93
2021/11/21 09:54:04;;;;;;;22.50;11.45;;;3.90;99.90;;;;;;5000481;28;20022;-94
2021/11/21 09:56:30;;;;;;;22.58;11.60;;;3.90;99.90;;;;;;5010987;28;20038;-91
2021/11/21 09:58:56;;;;;;;22.17;11.15;;;3.90;99.90;;;;;;5009619;28;20030;-94
2021/11/21 10:01:41;;;;;;;25.55;11.73;;;3.90;99.90;;;;;;5012025;28;20015;-92
2021/11/21 10:04:09;;;;;;;20.27;10.13;;;3.90;99.90;;;;;;5013293;28;20160;-91
2021/11/21 10:06:45;;;;;;;22.63;10.90;;;4.00;99.90;;;;;;5024980;28;20084;-91
2021/11/21 10:09:13;;;;;;;21.33;11.20;;;4.00;99.90;;;;;;5014425;28;20018;-92
2021/11/21 10:12:02;;;;;;;22.55;11.40;;;4.00;99.90;;;;;;5104248;23;20044;-68
2021/11/21 10:14:30;;;;;;;22.80;9.80;;;4.00;99.90;;;;;;5061479;28;20044;-67
2021/11/21 10:16:56;;;;;;;19.50;9.63;;;4.00;99.90;;;;;;5081675;28;20082;-68
2021/11/21 10:19:22;;;;;;;21.75;10.07;;;4.00;99.90;;;;;;5062950;28;20040;-67
2021/11/21 10:21:54;;;;;;;23.30;10.02;;;4.00;99.90;;;;;;5082923;28;20119;-67
2021/11/21 10:24:28;;;;;;;18.45;9.55;;;4.10;99.90;;;;;;5062693;28;20464;-68
2021/11/21 10:27:03;;;;;;;21.38;10.45;;;4.00;99.90;;;;;;5058118;28;20511;-68
2021/11/21 10:29:46;;;;;;;17.75;9.85;;;4.00;99.90;;;;;;5057708;28;20029;-68
2021/11/21 10:32:16;;;;;;;23.02;10.18;;;4.10;99.90;;;;;;5064863;28;20429;-68
2021/11/21 10:35:00;;;;;;;19.70;9.07;;;4.10;99.90;;;;;;5063241;28;20044;-68
2021/11/21 10:37:30;;;;;;;21.02;9.25;;;4.00;99.90;;;;;;5062939;28;20041;-68
2021/11/21 10:40:06;;;;;;;17.85;9.07;;;4.00;99.90;;;;;;5064227;28;20020;-68
2021/11/21 10:42:32;;;;;;;19.50;9.55;;;4.00;99.90;;;;;;5061099;28;20040;-68
2021/11/21 10:44:57;;;;;;;17.85;9.18;;;4.00;99.90;;;;;;5052098;28;20028;-68
2021/11/21 10:47:23;;;;;;;20.50;9.52;;;4.00;99.90;;;;;;5055642;28;20036;-68
2021/11/21 10:49:53;;;;;;;17.67;8.93;;;4.00;99.90;;;;;;5069680;28;20032;-68
2021/11/21 10:52:22;;;;;;;15.32;9.02;;;4.00;99.90;;;;;;5062508;28;20020;-68
2021/11/21 10:54:50;;;;;;;18.00;8.63;;;4.00;99.90;;;;;;5063818;28;20025;-68
2021/11/21 10:57:22;;;;;;;18.42;8.35;;;4.00;99.90;;;;;;5064768;28;20530;-68
2021/11/21 10:59:53;;;;;;;17.60;9.27;;;4.00;99.90;;;;;;5064700;28;20032;-68
2021/11/21 11:02:25;;;;;;;16.17;8.90;;;4.00;99.90;;;;;;5061513;28;20025;-68
2021/11/21 11:05:15;;;;;;;17.75;9.18;;;4.00;99.90;;;;;;5054738;28;20028;-68
2021/11/21 11:07:46;;;;;;;19.25;9.00;;;4.00;99.90;;;;;;5062313;28;20043;-67
2021/11/21 11:10:22;;;;;;;19.50;10.63;;;4.00;99.90;;;;;;5052669;28;20025;-68
2021/11/21 11:13:00;;;;;;;15.48;8.65;;;4.00;99.90;;;;;;5051214;28;20358;-68
2021/11/21 11:15:28;;;;;;;14.93;8.27;;;4.00;99.90;;;;;;5063050;28;20017;-67
2021/11/21 11:17:54;;;;;;;15.93;9.20;;;4.00;99.90;;;;;;5059334;28;20105;-68
2021/11/21 11:20:21;;;;;;;19.35;9.95;;;4.00;99.90;;;;;;5051428;28;20132;-68
2021/11/21 11:22:48;;;;;;;14.63;8.90;;;4.10;99.90;;;;;;5058393;28;20103;-68
2021/11/21 11:25:19;;;;;;;13.45;8.35;;;4.10;99.90;;;;;;5064600;28;20111;-68
2021/11/21 11:27:52;;;;;;;14.25;8.73;;;4.20;99.90;;;;;;5063500;28;20040;-68
2021/11/21 11:30:28;;;;;;;16.00;8.45;;;4.20;99.90;;;;;;5063068;28;20025;-68
2021/11/21 11:33:13;;;;;;;12.55;7.85;;;4.20;99.90;;;;;;5064382;28;20025;-68
2021/11/21 11:35:51;;;;;;;11.75;6.78;;;4.20;99.90;;;;;;5059064;28;20020;-68
2021/11/21 11:38:29;;;;;;;11.43;6.50;;;4.30;99.90;;;;;;5059923;28;20048;-68
2021/11/21 11:40:59;;;;;;;10.13;5.85;;;4.30;99.90;;;;;;5063912;28;20021;-68
2021/11/21 11:43:41;;;;;;;9.57;5.90;;;4.20;99.90;;;;;;5055789;28;20021;-68
2021/11/21 11:46:23;;;;;;;19.98;12.35;;;4.10;99.90;;;;;;5055834;28;20504;-68
2021/11/21 11:48:56;;;;;;;8.65;5.40;;;4.10;99.90;;;;;;5065842;28;20038;-67
2021/11/21 11:51:28;;;;;;;8.80;5.78;;;4.10;99.90;;;;;;5073242;28;20103;-68
2021/11/21 11:54:19;;;;;;;9.50;5.33;;;4.10;99.90;;;;;;5063107;28;20025;-68
2021/11/21 11:56:52;;;;;;;8.43;5.25;;;4.10;99.90;;;;;;5064676;28;20029;-68
2021/11/21 11:59:37;;;;;;;17.73;9.27;;;4.10;99.90;;;;;;5068763;28;20058;-68
2021/11/21 12:02:09;;;;;;;18.20;13.40;;;4.10;99.90;;;;;;5067710;28;20540;-67
2021/11/21 12:04:35;;;;;;;19.23;12.45;;;4.20;99.90;;;;;;5064631;28;20047;-68
2021/11/21 12:07:05;;;;;;;76.25;67.50;;;4.20;99.90;;;;;;5065732;28;20021;-68
2021/11/21 12:09:32;;;;;;;33.40;25.25;;;4.20;99.90;;;;;;5051682;28;20025;-68
2021/11/21 12:12:05;;;;;;;18.80;11.25;;;4.20;99.90;;;;;;5059076;28;20112;-68
2021/11/21 12:14:35;;;;;;;8.98;5.43;;;4.30;99.90;;;;;;5061244;28;20667;-68
2021/11/21 12:17:11;;;;;;;8.52;5.25;;;4.20;99.90;;;;;;5077321;28;20067;-68
2021/11/21 12:19:56;;;;;;;7.93;5.13;;;4.20;99.90;;;;;;5060224;28;20028;-68
2021/11/21 12:22:32;;;;;;;7.78;5.20;;;4.30;99.90;;;;;;5066399;28;20029;-68
2021/11/21 12:25:01;;;;;;;9.00;5.10;;;4.20;99.90;;;;;;5058796;28;20048;-68
2021/11/21 12:27:31;;;;;;;5.15;3.97;;;4.30;99.90;;;;;;5065964;28;20107;-68
2021/11/21 12:30:12;;;;;;;8.93;5.20;;;4.30;99.90;;;;;;5067159;28;20070;-68
2021/11/21 12:32:45;;;;;;;7.22;5.10;;;4.30;99.90;;;;;;5058992;28;20028;-67
2021/11/21 12:35:34;;;;;;;6.00;4.38;;;4.30;99.90;;;;;;5065928;28;20035;-68
2021/11/21 12:38:02;;;;;;;5.00;3.60;;;4.30;99.90;;;;;;5047096;28;20063;-68
2021/11/21 12:40:39;;;;;;;5.63;4.00;;;4.30;99.90;;;;;;5062039;28;20522;-68